CheckWX is a tool to help pilots better visualize weather data.  It is not intended as a substitute for an official pre-flight weather briefing.

08:09:58 UTC

KSJS TAF
Big Sandy Regional Airport
Prestonsburg, Kentucky, USA
KSJS 280531Z 2806/2906 VRB04KT P6SM FEW050 BKN250 FM281500 21007G15KT P6SM SCT040 BKN250 FM290100 20005KT P6SM FEW050 BKN250

Mar-28@
06:00 UTC

Mar-28 @ 06:00 UTC

Mar-28@
15:00 UTC

Mar-28 @ 15:00 UTC

TAF KSJS 280531Z 2806/2906 VRB04KT P6SM FEW050 BKN250
Wind
  • Variable at 4 KTS
Cloud Levels
  • Few at 5,000' AGL
  • Broken at 25,000' AGL

Mar-28@
15:00 UTC

Mar-28 @ 15:00 UTC

Mar-29@
01:00 UTC

Mar-29 @ 01:00 UTC

FM281500 21007G15KT P6SM SCT040 BKN250

From

From Standard forecast or significant change

Wind
  • 210° at 7 KTS
  • {Gusting to 15 KTS
Cloud Levels
  • Scattered at 4,000' AGL
  • Broken at 25,000' AGL

Mar-29@
01:00 UTC

Mar-29 @ 01:00 UTC

Mar-29@
06:00 UTC

Mar-29 @ 06:00 UTC

FM290100 20005KT P6SM FEW050 BKN250

From

From Standard forecast or significant change

Wind
  • 200° at 5 KTS
Cloud Levels
  • Few at 5,000' AGL
  • Broken at 25,000' AGL